Create Tblcommutelog Verified Points Advance Search
| # | Trip ID | Id Commuter | Trip Date | Trip Num | Current Lat | Current Lng | Delta Distance | Current Time | Activity | Activity Confidence | Current Speed | |
|---|---|---|---|---|---|---|---|---|---|---|---|---|
| 72621 | 251006_788475_16428771_0631 | 788475 | (not set) | (not set) | 38.886307392472 | -77.021551300323 | 10.4617 | 2025-10-06 06:56:37 | on_foot | 100 | 0.3531610146003 | |
| 72622 | 251006_787797_16493029_0632 | 787797 | (not set) | (not set) | 39.06034980619 | -77.118426781844 | 13.577 | 2025-10-06 06:56:36 | unknown | 100 | 8.4311604245085 | |
| 72623 | 251006_788423_16505268_0629 | 788423 | (not set) | (not set) | 38.811674183333 | -76.962267483333 | 32.0701 | 2025-10-06 06:56:40 | unknown | 100 | 12.190760592595 | |
| 72624 | 251006_788077_16505268_0631 | 788077 | (not set) | (not set) | 38.811668794247 | -76.962213338724 | 29.89 | 2025-10-06 06:56:41 | unknown | 100 | 12.199701377775 | |
| 72625 | 251006_786113_16505268_0622 | 786113 | (not set) | (not set) | 38.811698441493 | -76.962207230096 | 33.3093 | 2025-10-06 06:56:41 | in_vehicle | 100 | 12.190760592595 | |
| 72626 | 251006_788475_16428771_0631 | 788475 | (not set) | (not set) | 38.886290043368 | -77.021497125163 | 10.4617 | 2025-10-06 06:56:42 | on_foot | 100 | 0.53644711078527 | |
| 72627 | 251006_787968_16505268_0622 | 787968 | (not set) | (not set) | 38.811831720363 | -76.961950691037 | 33.4303 | 2025-10-06 06:56:42 | still | 33 | 11.989592926051 | |
| 72628 | 251006_714319_16514952_0649 | 714319 | (not set) | (not set) | 38.785940358376 | -77.29623696223 | 1.6485 | 2025-10-06 06:56:42 | in_vehicle | 100 | 7.3761477732975 | |
| 72629 | 251006_770872_16486958_0650 | 770872 | (not set) | (not set) | 39.1694937 | -76.8035835 | 3.9709 | 2025-10-06 06:56:42 | in_vehicle | 100 | 14.072795872934 | |
| 72630 | 251006_788116_16505268_0631 | 788116 | (not set) | (not set) | 38.858793494288 | -77.364134324032 | 20.1771 | 2025-10-06 06:56:43 | unknown | 100 | 14.21137804322 | |
| 72631 | 251006_788956_16505268_0631 | 788956 | (not set) | (not set) | 38.858884863099 | -77.363713720763 | 21.3591 | 2025-10-06 06:56:44 | in_vehicle | 100 | 14.354430606096 | |
| 72632 | 251006_788422_16420004_0649 | 788422 | (not set) | (not set) | 38.898940014448 | -77.005765843162 | 0.8564 | 2025-10-06 06:56:44 | on_foot | 100 | -0.44703925898772 | |
| 72633 | 251006_788422_16420004_0649 | 788422 | (not set) | (not set) | 38.898940014448 | -77.005765843162 | 0.8564 | 2025-10-06 06:56:44 | on_foot | 100 | -0.44703925898772 | |
| 72634 | 251006_788422_16420004_0649 | 788422 | (not set) | (not set) | 38.898940014448 | -77.005765843162 | 0.8564 | 2025-10-06 06:56:44 | on_foot | 100 | -0.44703925898772 | |
| 72635 | 251006_788422_16420004_0649 | 788422 | (not set) | (not set) | 38.898940014448 | -77.005765843162 | 0.8564 | 2025-10-06 06:56:44 | on_foot | 100 | -0.44703925898772 | |
| 72636 | 251006_788422_16420004_0649 | 788422 | (not set) | (not set) | 38.898940014448 | -77.005765843162 | 0.8564 | 2025-10-06 06:56:44 | on_foot | 100 | -0.44703925898772 | |
| 72637 | 251006_788422_16420004_0649 | 788422 | (not set) | (not set) | 38.898940014448 | -77.005765843162 | 0.8564 | 2025-10-06 06:56:44 | on_foot | 100 | -0.44703925898772 | |
| 72638 | 251006_788084_16449863_0629 | 788084 | (not set) | (not set) | 39.267062991082 | -76.614937125271 | 23.3893 | 2025-10-06 06:56:45 | in_vehicle | 100 | 9.6426368163652 | |
| 72639 | 251006_788084_16449863_0629 | 788084 | (not set) | (not set) | 39.267062991082 | -76.614937125271 | 23.3893 | 2025-10-06 06:56:45 | in_vehicle | 100 | 9.6426368163652 | |
| 72640 | 251006_788084_16449863_0629 | 788084 | (not set) | (not set) | 39.267062991082 | -76.614937125271 | 23.3893 | 2025-10-06 06:56:45 | in_vehicle | 100 | 9.6426368163652 |